logo
Rechercher aéroport 
image banner adimage banner adimage banner ad
image banner ad

FAMERC - Mercy Air

Situé à , South Africa

ICAO - , IATA -

Données fournies par Airmate  

Information générale

Coordonnées: S25°19'4" E30°58'22"
Élévation : 2978 feet MSL.
 
Voir autres Aéroports à Mpumalanga

Données opérationnelles

Special qualification required
Heure actuelle UTC:
Heure actuelle locale:
METAR: FAKN 180000Z AUTO 07003KT //// // ////// 17/15 Q1025
Voir NOTAMs / SUP AIP / TFR affectant cet aéroport [VIEW]
Fréquences de communication: [VIEW]

Pistes:

Identifiant RWYQFULongueur (ft)Largeur (ft)SurfaceLDA (ft)
0642°196933GRASS
24222°196933GRASS

Coordonnées de l'aéroport

Adresse: South Africa

Vue satellite de FAMERC